sensor_id;sensor_type;location;lat;lon;timestamp;P1;durP1;ratioP1;P2;durP2;ratioP2
51292;SDS011;37377;45.186;9.778;2022-08-25T00:01:50;18.13;;;13.50;;
51292;SDS011;37377;45.186;9.778;2022-08-25T00:04:17;28.08;;;13.80;;
51292;SDS011;37377;45.186;9.778;2022-08-25T00:06:47;20.45;;;13.85;;
51292;SDS011;37377;45.186;9.778;2022-08-25T00:09:15;18.85;;;13.90;;
51292;SDS011;37377;45.186;9.778;2022-08-25T00:11:44;18.77;;;13.15;;
51292;SDS011;37377;45.186;9.778;2022-08-25T00:14:12;15.23;;;13.68;;
51292;SDS011;37377;45.186;9.778;2022-08-25T00:16:44;18.30;;;13.73;;
51292;SDS011;37377;45.186;9.778;2022-08-25T00:19:14;22.35;;;13.00;;
51292;SDS011;37377;45.186;9.778;2022-08-25T00:21:43;25.33;;;14.00;;
51292;SDS011;37377;45.186;9.778;2022-08-25T00:24:13;16.88;;;14.73;;
51292;SDS011;37377;45.186;9.778;2022-08-25T00:26:46;22.25;;;14.40;;
51292;SDS011;37377;45.186;9.778;2022-08-25T00:29:14;22.42;;;14.48;;
51292;SDS011;37377;45.186;9.778;2022-08-25T00:31:42;21.85;;;15.05;;
51292;SDS011;37377;45.186;9.778;2022-08-25T00:34:11;16.80;;;14.90;;
51292;SDS011;37377;45.186;9.778;2022-08-25T00:36:41;20.35;;;15.10;;
51292;SDS011;37377;45.186;9.778;2022-08-25T00:39:10;26.77;;;15.43;;
51292;SDS011;37377;45.186;9.778;2022-08-25T00:41:38;22.98;;;14.77;;
51292;SDS011;37377;45.186;9.778;2022-08-25T00:44:07;18.45;;;15.60;;
51292;SDS011;37377;45.186;9.778;2022-08-25T00:46:37;26.23;;;15.80;;
51292;SDS011;37377;45.186;9.778;2022-08-25T00:49:09;18.05;;;14.85;;
51292;SDS011;37377;45.186;9.778;2022-08-25T00:51:59;27.38;;;16.13;;
51292;SDS011;37377;45.186;9.778;2022-08-25T00:54:30;23.05;;;16.52;;
51292;SDS011;37377;45.186;9.778;2022-08-25T00:57:00;27.92;;;16.20;;
51292;SDS011;37377;45.186;9.778;2022-08-25T00:59:30;21.23;;;16.40;;
51292;SDS011;37377;45.186;9.778;2022-08-25T01:01:58;24.45;;;16.98;;
51292;SDS011;37377;45.186;9.778;2022-08-25T01:04:25;20.98;;;15.15;;
51292;SDS011;37377;45.186;9.778;2022-08-25T01:06:52;19.42;;;14.75;;
51292;SDS011;37377;45.186;9.778;2022-08-25T01:09:21;15.80;;;13.98;;
51292;SDS011;37377;45.186;9.778;2022-08-25T01:11:48;18.45;;;13.18;;
51292;SDS011;37377;45.186;9.778;2022-08-25T01:14:16;26.70;;;13.00;;
51292;SDS011;37377;45.186;9.778;2022-08-25T01:16:45;28.73;;;13.30;;
51292;SDS011;37377;45.186;9.778;2022-08-25T01:19:16;17.58;;;13.63;;
51292;SDS011;37377;45.186;9.778;2022-08-25T01:21:46;22.77;;;13.20;;
51292;SDS011;37377;45.186;9.778;2022-08-25T01:26:52;17.10;;;13.60;;
51292;SDS011;37377;45.186;9.778;2022-08-25T01:29:19;17.20;;;13.75;;
51292;SDS011;37377;45.186;9.778;2022-08-25T01:31:47;18.30;;;13.68;;
51292;SDS011;37377;45.186;9.778;2022-08-25T01:34:16;22.67;;;14.70;;
51292;SDS011;37377;45.186;9.778;2022-08-25T01:37:03;18.42;;;14.80;;
51292;SDS011;37377;45.186;9.778;2022-08-25T01:39:30;17.40;;;15.05;;
51292;SDS011;37377;45.186;9.778;2022-08-25T01:44:35;24.88;;;16.52;;
51292;SDS011;37377;45.186;9.778;2022-08-25T01:47:21;25.75;;;16.63;;
51292;SDS011;37377;45.186;9.778;2022-08-25T01:51:19;18.02;;;16.23;;
51292;SDS011;37377;45.186;9.778;2022-08-25T01:54:38;26.55;;;16.67;;
51292;SDS011;37377;45.186;9.778;2022-08-25T02:01:31;31.52;;;18.25;;
51292;SDS011;37377;45.186;9.778;2022-08-25T02:04:29;28.67;;;18.15;;
51292;SDS011;37377;45.186;9.778;2022-08-25T02:07:50;29.25;;;17.58;;
51292;SDS011;37377;45.186;9.778;2022-08-25T02:10:17;27.75;;;17.65;;
51292;SDS011;37377;45.186;9.778;2022-08-25T02:12:44;32.55;;;18.48;;
51292;SDS011;37377;45.186;9.778;2022-08-25T02:15:15;24.10;;;18.80;;
51292;SDS011;37377;45.186;9.778;2022-08-25T02:18:29;26.02;;;19.05;;
51292;SDS011;37377;45.186;9.778;2022-08-25T02:21:09;27.42;;;19.38;;
51292;SDS011;37377;45.186;9.778;2022-08-25T02:23:37;28.30;;;20.30;;
51292;SDS011;37377;45.186;9.778;2022-08-25T02:26:04;26.08;;;19.70;;
51292;SDS011;37377;45.186;9.778;2022-08-25T02:28:31;26.20;;;19.90;;
51292;SDS011;37377;45.186;9.778;2022-08-25T02:31:21;35.13;;;20.98;;
51292;SDS011;37377;45.186;9.778;2022-08-25T02:33:51;23.55;;;21.15;;
51292;SDS011;37377;45.186;9.778;2022-08-25T02:36:19;25.23;;;20.75;;
51292;SDS011;37377;45.186;9.778;2022-08-25T02:38:46;26.00;;;20.23;;
51292;SDS011;37377;45.186;9.778;2022-08-25T02:41:15;25.92;;;21.67;;
51292;SDS011;37377;45.186;9.778;2022-08-25T02:44:59;28.83;;;22.13;;
51292;SDS011;37377;45.186;9.778;2022-08-25T02:48:34;33.80;;;21.83;;
51292;SDS011;37377;45.186;9.778;2022-08-25T02:52:53;32.08;;;22.40;;
51292;SDS011;37377;45.186;9.778;2022-08-25T02:55:23;24.48;;;22.10;;
51292;SDS011;37377;45.186;9.778;2022-08-25T02:57:50;24.85;;;22.27;;
51292;SDS011;37377;45.186;9.778;2022-08-25T03:00:21;29.13;;;21.98;;
51292;SDS011;37377;45.186;9.778;2022-08-25T03:02:48;28.33;;;22.38;;
51292;SDS011;37377;45.186;9.778;2022-08-25T03:05:15;28.80;;;22.38;;
51292;SDS011;37377;45.186;9.778;2022-08-25T03:07:42;25.80;;;20.48;;
51292;SDS011;37377;45.186;9.778;2022-08-25T03:10:12;32.67;;;20.67;;
51292;SDS011;37377;45.186;9.778;2022-08-25T03:12:41;28.98;;;18.75;;
51292;SDS011;37377;45.186;9.778;2022-08-25T03:15:08;20.65;;;18.52;;
51292;SDS011;37377;45.186;9.778;2022-08-25T03:17:38;28.55;;;19.50;;
51292;SDS011;37377;45.186;9.778;2022-08-25T03:20:06;24.13;;;19.25;;
51292;SDS011;37377;45.186;9.778;2022-08-25T03:22:39;34.63;;;19.67;;
51292;SDS011;37377;45.186;9.778;2022-08-25T03:25:08;40.15;;;19.42;;
51292;SDS011;37377;45.186;9.778;2022-08-25T03:29:04;21.02;;;18.92;;
51292;SDS011;37377;45.186;9.778;2022-08-25T03:32:17;26.58;;;20.55;;
51292;SDS011;37377;45.186;9.778;2022-08-25T03:35:26;22.95;;;20.30;;
51292;SDS011;37377;45.186;9.778;2022-08-25T03:38:23;39.17;;;20.60;;
51292;SDS011;37377;45.186;9.778;2022-08-25T03:42:45;40.25;;;21.23;;
51292;SDS011;37377;45.186;9.778;2022-08-25T03:46:36;29.85;;;22.20;;
51292;SDS011;37377;45.186;9.778;2022-08-25T03:49:52;26.98;;;22.52;;
51292;SDS011;37377;45.186;9.778;2022-08-25T03:52:39;28.17;;;21.08;;
51292;SDS011;37377;45.186;9.778;2022-08-25T03:55:59;31.75;;;21.38;;
51292;SDS011;37377;45.186;9.778;2022-08-25T03:59:12;28.20;;;22.20;;
51292;SDS011;37377;45.186;9.778;2022-08-25T04:02:43;30.70;;;22.88;;
51292;SDS011;37377;45.186;9.778;2022-08-25T04:08:43;34.60;;;23.77;;
51292;SDS011;37377;45.186;9.778;2022-08-25T04:12:08;34.88;;;24.10;;
51292;SDS011;37377;45.186;9.778;2022-08-25T04:19:53;33.67;;;24.42;;
51292;SDS011;37377;45.186;9.778;2022-08-25T04:22:29;33.97;;;23.88;;
51292;SDS011;37377;45.186;9.778;2022-08-25T04:25:03;27.55;;;24.35;;
51292;SDS011;37377;45.186;9.778;2022-08-25T04:27:31;36.72;;;25.15;;
51292;SDS011;37377;45.186;9.778;2022-08-25T04:29:58;40.55;;;26.08;;
51292;SDS011;37377;45.186;9.778;2022-08-25T04:32:25;39.28;;;25.27;;
51292;SDS011;37377;45.186;9.778;2022-08-25T04:34:52;28.77;;;23.73;;
51292;SDS011;37377;45.186;9.778;2022-08-25T04:37:19;33.10;;;24.60;;
51292;SDS011;37377;45.186;9.778;2022-08-25T04:39:46;38.33;;;24.27;;
51292;SDS011;37377;45.186;9.778;2022-08-25T04:42:13;32.20;;;25.50;;
51292;SDS011;37377;45.186;9.778;2022-08-25T04:44:40;33.95;;;26.48;;
51292;SDS011;37377;45.186;9.778;2022-08-25T04:47:08;29.92;;;26.88;;
51292;SDS011;37377;45.186;9.778;2022-08-25T04:54:47;39.25;;;26.77;;
51292;SDS011;37377;45.186;9.778;2022-08-25T05:01:59;31.63;;;25.37;;
51292;SDS011;37377;45.186;9.778;2022-08-25T05:05:00;41.17;;;25.38;;
51292;SDS011;37377;45.186;9.778;2022-08-25T05:07:32;37.63;;;25.73;;
51292;SDS011;37377;45.186;9.778;2022-08-25T05:09:59;29.88;;;24.75;;
51292;SDS011;37377;45.186;9.778;2022-08-25T05:12:28;39.67;;;26.33;;
51292;SDS011;37377;45.186;9.778;2022-08-25T05:14:58;30.63;;;25.65;;
51292;SDS011;37377;45.186;9.778;2022-08-25T05:17:48;39.50;;;26.23;;
51292;SDS011;37377;45.186;9.778;2022-08-25T05:20:27;36.38;;;25.52;;
51292;SDS011;37377;45.186;9.778;2022-08-25T05:23:01;28.55;;;23.17;;
51292;SDS011;37377;45.186;9.778;2022-08-25T05:25:28;28.48;;;21.40;;
51292;SDS011;37377;45.186;9.778;2022-08-25T05:27:55;23.60;;;19.88;;
51292;SDS011;37377;45.186;9.778;2022-08-25T05:30:22;28.02;;;18.00;;
51292;SDS011;37377;45.186;9.778;2022-08-25T05:32:49;31.90;;;16.40;;
51292;SDS011;37377;45.186;9.778;2022-08-25T05:35:16;29.27;;;15.30;;
51292;SDS011;37377;45.186;9.778;2022-08-25T05:37:45;18.30;;;15.50;;
51292;SDS011;37377;45.186;9.778;2022-08-25T05:40:13;21.38;;;14.93;;
51292;SDS011;37377;45.186;9.778;2022-08-25T05:42:41;32.83;;;15.63;;
51292;SDS011;37377;45.186;9.778;2022-08-25T05:45:08;22.10;;;15.95;;
51292;SDS011;37377;45.186;9.778;2022-08-25T05:47:46;29.33;;;16.15;;
51292;SDS011;37377;45.186;9.778;2022-08-25T05:50:13;39.10;;;16.13;;
51292;SDS011;37377;45.186;9.778;2022-08-25T05:52:41;19.63;;;15.55;;
51292;SDS011;37377;45.186;9.778;2022-08-25T05:55:08;20.90;;;15.88;;
51292;SDS011;37377;45.186;9.778;2022-08-25T05:57:35;17.58;;;14.70;;
51292;SDS011;37377;45.186;9.778;2022-08-25T06:00:05;21.30;;;14.52;;
51292;SDS011;37377;45.186;9.778;2022-08-25T06:02:40;15.40;;;14.00;;
51292;SDS011;37377;45.186;9.778;2022-08-25T06:05:10;17.92;;;14.02;;
51292;SDS011;37377;45.186;9.778;2022-08-25T06:07:46;23.02;;;12.52;;
51292;SDS011;37377;45.186;9.778;2022-08-25T06:10:14;25.17;;;12.98;;
51292;SDS011;37377;45.186;9.778;2022-08-25T06:12:42;17.23;;;11.40;;
51292;SDS011;37377;45.186;9.778;2022-08-25T06:15:11;18.73;;;10.82;;
51292;SDS011;37377;45.186;9.778;2022-08-25T06:17:39;27.02;;;10.23;;
51292;SDS011;37377;45.186;9.778;2022-08-25T06:20:09;28.55;;;12.10;;
51292;SDS011;37377;45.186;9.778;2022-08-25T06:22:40;29.50;;;8.85;;
51292;SDS011;37377;45.186;9.778;2022-08-25T06:25:09;15.70;;;8.38;;
51292;SDS011;37377;45.186;9.778;2022-08-25T06:27:37;14.43;;;8.13;;
51292;SDS011;37377;45.186;9.778;2022-08-25T06:30:09;20.98;;;8.88;;
51292;SDS011;37377;45.186;9.778;2022-08-25T06:32:42;12.70;;;8.50;;
51292;SDS011;37377;45.186;9.778;2022-08-25T06:39:10;15.35;;;8.68;;
51292;SDS011;37377;45.186;9.778;2022-08-25T06:41:37;11.73;;;8.88;;
51292;SDS011;37377;45.186;9.778;2022-08-25T06:44:04;13.13;;;8.50;;
51292;SDS011;37377;45.186;9.778;2022-08-25T06:46:32;12.43;;;9.48;;
51292;SDS011;37377;45.186;9.778;2022-08-25T06:49:02;13.57;;;7.18;;
51292;SDS011;37377;45.186;9.778;2022-08-25T06:51:31;17.67;;;6.60;;
51292;SDS011;37377;45.186;9.778;2022-08-25T06:53:58;24.48;;;8.40;;
51292;SDS011;37377;45.186;9.778;2022-08-25T06:56:26;18.75;;;6.47;;
51292;SDS011;37377;45.186;9.778;2022-08-25T06:58:53;14.38;;;6.00;;
51292;SDS011;37377;45.186;9.778;2022-08-25T07:01:22;11.30;;;5.60;;
51292;SDS011;37377;45.186;9.778;2022-08-25T07:03:53;13.60;;;4.90;;
51292;SDS011;37377;45.186;9.778;2022-08-25T07:06:26;11.32;;;4.57;;
51292;SDS011;37377;45.186;9.778;2022-08-25T07:08:54;13.43;;;4.25;;
51292;SDS011;37377;45.186;9.778;2022-08-25T07:11:21;14.82;;;3.92;;
51292;SDS011;37377;45.186;9.778;2022-08-25T07:13:49;17.27;;;4.07;;
51292;SDS011;37377;45.186;9.778;2022-08-25T07:16:17;9.25;;;3.53;;
51292;SDS011;37377;45.186;9.778;2022-08-25T07:18:46;8.68;;;3.50;;
51292;SDS011;37377;45.186;9.778;2022-08-25T07:21:13;13.75;;;2.80;;
51292;SDS011;37377;45.186;9.778;2022-08-25T07:23:41;10.38;;;3.30;;
51292;SDS011;37377;45.186;9.778;2022-08-25T07:28:58;21.73;;;3.78;;
51292;SDS011;37377;45.186;9.778;2022-08-25T07:31:26;10.35;;;3.05;;
51292;SDS011;37377;45.186;9.778;2022-08-25T07:33:55;7.13;;;3.25;;
51292;SDS011;37377;45.186;9.778;2022-08-25T07:36:42;10.45;;;3.05;;
51292;SDS011;37377;45.186;9.778;2022-08-25T07:39:10;7.03;;;2.67;;
51292;SDS011;37377;45.186;9.778;2022-08-25T07:41:38;6.20;;;3.05;;
51292;SDS011;37377;45.186;9.778;2022-08-25T07:47:20;16.80;;;3.10;;
51292;SDS011;37377;45.186;9.778;2022-08-25T07:49:48;8.48;;;2.72;;
51292;SDS011;37377;45.186;9.778;2022-08-25T07:52:17;9.38;;;3.30;;
51292;SDS011;37377;45.186;9.778;2022-08-25T07:54:44;7.72;;;2.90;;
51292;SDS011;37377;45.186;9.778;2022-08-25T07:57:12;7.57;;;3.08;;
51292;SDS011;37377;45.186;9.778;2022-08-25T07:59:40;9.38;;;3.10;;
51292;SDS011;37377;45.186;9.778;2022-08-25T08:02:08;11.15;;;3.40;;
51292;SDS011;37377;45.186;9.778;2022-08-25T08:04:48;10.82;;;3.17;;
51292;SDS011;37377;45.186;9.778;2022-08-25T08:07:21;5.28;;;2.50;;
51292;SDS011;37377;45.186;9.778;2022-08-25T08:10:10;4.32;;;2.20;;
51292;SDS011;37377;45.186;9.778;2022-08-25T08:12:58;7.10;;;2.60;;
51292;SDS011;37377;45.186;9.778;2022-08-25T08:15:26;9.98;;;2.75;;
51292;SDS011;37377;45.186;9.778;2022-08-25T08:21:29;6.85;;;2.28;;
51292;SDS011;37377;45.186;9.778;2022-08-25T08:23:58;7.82;;;2.75;;
51292;SDS011;37377;45.186;9.778;2022-08-25T08:26:26;14.43;;;2.50;;
51292;SDS011;37377;45.186;9.778;2022-08-25T08:29:14;16.48;;;2.97;;
51292;SDS011;37377;45.186;9.778;2022-08-25T08:31:41;4.68;;;3.20;;
51292;SDS011;37377;45.186;9.778;2022-08-25T08:34:14;6.07;;;1.90;;
51292;SDS011;37377;45.186;9.778;2022-08-25T08:36:42;15.27;;;2.15;;
51292;SDS011;37377;45.186;9.778;2022-08-25T08:39:11;3.72;;;1.85;;
51292;SDS011;37377;45.186;9.778;2022-08-25T08:41:43;10.98;;;2.22;;
51292;SDS011;37377;45.186;9.778;2022-08-25T08:44:42;10.18;;;2.28;;
51292;SDS011;37377;45.186;9.778;2022-08-25T08:50:36;4.38;;;3.35;;
51292;SDS011;37377;45.186;9.778;2022-08-25T08:56:18;9.05;;;4.47;;
51292;SDS011;37377;45.186;9.778;2022-08-25T08:58:49;12.45;;;4.32;;
51292;SDS011;37377;45.186;9.778;2022-08-25T09:01:41;7.18;;;3.55;;
51292;SDS011;37377;45.186;9.778;2022-08-25T09:04:20;7.03;;;3.08;;
51292;SDS011;37377;45.186;9.778;2022-08-25T09:06:53;5.20;;;2.72;;
51292;SDS011;37377;45.186;9.778;2022-08-25T09:09:32;8.43;;;3.05;;
51292;SDS011;37377;45.186;9.778;2022-08-25T09:21:02;8.02;;;3.22;;
51292;SDS011;37377;45.186;9.778;2022-08-25T09:30:12;9.85;;;2.13;;
51292;SDS011;37377;45.186;9.778;2022-08-25T09:32:44;4.70;;;2.45;;
51292;SDS011;37377;45.186;9.778;2022-08-25T09:35:31;5.75;;;1.60;;
51292;SDS011;37377;45.186;9.778;2022-08-25T09:38:05;4.88;;;1.52;;
51292;SDS011;37377;45.186;9.778;2022-08-25T09:40:37;14.63;;;1.73;;
51292;SDS011;37377;45.186;9.778;2022-08-25T09:43:57;8.18;;;1.70;;
51292;SDS011;37377;45.186;9.778;2022-08-25T09:46:26;4.32;;;1.80;;
51292;SDS011;37377;45.186;9.778;2022-08-25T09:48:56;3.03;;;1.67;;
51292;SDS011;37377;45.186;9.778;2022-08-25T09:51:29;7.55;;;1.92;;
51292;SDS011;37377;45.186;9.778;2022-08-25T09:56:49;6.03;;;2.10;;
51292;SDS011;37377;45.186;9.778;2022-08-25T09:59:21;12.07;;;2.30;;
51292;SDS011;37377;45.186;9.778;2022-08-25T10:02:59;13.90;;;2.40;;
51292;SDS011;37377;45.186;9.778;2022-08-25T10:04:54;5.30;;;2.10;;
51292;SDS011;37377;45.186;9.778;2022-08-25T10:07:25;6.78;;;2.38;;
51292;SDS011;37377;45.186;9.778;2022-08-25T10:09:55;6.60;;;2.35;;
51292;SDS011;37377;45.186;9.778;2022-08-25T10:14:56;8.48;;;2.10;;
51292;SDS011;37377;45.186;9.778;2022-08-25T10:17:30;3.25;;;1.92;;
51292;SDS011;37377;45.186;9.778;2022-08-25T10:22:37;9.15;;;2.58;;
51292;SDS011;37377;45.186;9.778;2022-08-25T10:25:06;4.88;;;2.95;;
51292;SDS011;37377;45.186;9.778;2022-08-25T10:27:48;16.95;;;2.50;;
51292;SDS011;37377;45.186;9.778;2022-08-25T10:30:27;2.65;;;1.98;;
51292;SDS011;37377;45.186;9.778;2022-08-25T10:39:02;9.85;;;2.15;;
51292;SDS011;37377;45.186;9.778;2022-08-25T10:42:05;8.48;;;1.98;;
51292;SDS011;37377;45.186;9.778;2022-08-25T10:44:41;5.45;;;1.88;;
51292;SDS011;37377;45.186;9.778;2022-08-25T10:50:40;14.30;;;2.30;;
51292;SDS011;37377;45.186;9.778;2022-08-25T10:56:04;4.53;;;2.60;;
51292;SDS011;37377;45.186;9.778;2022-08-25T11:07:06;3.25;;;1.83;;
51292;SDS011;37377;45.186;9.778;2022-08-25T11:13:37;6.00;;;1.98;;
51292;SDS011;37377;45.186;9.778;2022-08-25T11:16:13;9.97;;;2.00;;
51292;SDS011;37377;45.186;9.778;2022-08-25T11:18:55;9.20;;;2.30;;
51292;SDS011;37377;45.186;9.778;2022-08-25T11:21:37;4.13;;;1.60;;
51292;SDS011;37377;45.186;9.778;2022-08-25T11:24:09;2.30;;;1.70;;
51292;SDS011;37377;45.186;9.778;2022-08-25T11:26:48;3.72;;;1.77;;
51292;SDS011;37377;45.186;9.778;2022-08-25T11:29:19;2.88;;;1.90;;
51292;SDS011;37377;45.186;9.778;2022-08-25T11:31:49;5.97;;;1.98;;
51292;SDS011;37377;45.186;9.778;2022-08-25T11:34:19;8.70;;;2.20;;
51292;SDS011;37377;45.186;9.778;2022-08-25T11:36:48;3.60;;;1.83;;
51292;SDS011;37377;45.186;9.778;2022-08-25T11:44:47;7.07;;;2.20;;
51292;SDS011;37377;45.186;9.778;2022-08-25T11:47:35;3.35;;;1.70;;
51292;SDS011;37377;45.186;9.778;2022-08-25T11:50:22;7.10;;;2.20;;
51292;SDS011;37377;45.186;9.778;2022-08-25T11:52:56;4.43;;;2.20;;
51292;SDS011;37377;45.186;9.778;2022-08-25T11:55:29;1.95;;;1.85;;
51292;SDS011;37377;45.186;9.778;2022-08-25T12:07:16;5.20;;;2.05;;
51292;SDS011;37377;45.186;9.778;2022-08-25T12:17:43;8.43;;;1.83;;
51292;SDS011;37377;45.186;9.778;2022-08-25T12:20:13;6.68;;;1.65;;
51292;SDS011;37377;45.186;9.778;2022-08-25T12:22:41;9.55;;;1.90;;
51292;SDS011;37377;45.186;9.778;2022-08-25T12:25:25;4.30;;;1.50;;
51292;SDS011;37377;45.186;9.778;2022-08-25T12:28:34;7.88;;;1.75;;
51292;SDS011;37377;45.186;9.778;2022-08-25T12:33:39;8.00;;;2.10;;
51292;SDS011;37377;45.186;9.778;2022-08-25T12:36:26;6.25;;;1.77;;
51292;SDS011;37377;45.186;9.778;2022-08-25T12:42:04;3.17;;;1.88;;
51292;SDS011;37377;45.186;9.778;2022-08-25T12:49:49;6.07;;;2.00;;
51292;SDS011;37377;45.186;9.778;2022-08-25T12:52:20;7.25;;;2.10;;
51292;SDS011;37377;45.186;9.778;2022-08-25T12:54:57;2.80;;;1.65;;
51292;SDS011;37377;45.186;9.778;2022-08-25T13:00:25;7.05;;;1.92;;
51292;SDS011;37377;45.186;9.778;2022-08-25T13:16:17;3.28;;;1.80;;
51292;SDS011;37377;45.186;9.778;2022-08-25T13:18:51;3.05;;;2.45;;
51292;SDS011;37377;45.186;9.778;2022-08-25T13:21:28;3.97;;;2.30;;
51292;SDS011;37377;45.186;9.778;2022-08-25T13:24:01;2.90;;;2.20;;
51292;SDS011;37377;45.186;9.778;2022-08-25T13:26:38;14.40;;;2.50;;
51292;SDS011;37377;45.186;9.778;2022-08-25T13:29:19;12.70;;;2.40;;
51292;SDS011;37377;45.186;9.778;2022-08-25T13:31:55;5.03;;;1.92;;
51292;SDS011;37377;45.186;9.778;2022-08-25T13:34:24;11.15;;;2.60;;
51292;SDS011;37377;45.186;9.778;2022-08-25T13:37:05;9.43;;;2.30;;
51292;SDS011;37377;45.186;9.778;2022-08-25T13:42:57;3.70;;;2.08;;
51292;SDS011;37377;45.186;9.778;2022-08-25T13:45:29;13.25;;;1.92;;
51292;SDS011;37377;45.186;9.778;2022-08-25T13:48:10;31.88;;;2.80;;
51292;SDS011;37377;45.186;9.778;2022-08-25T13:50:51;5.95;;;2.40;;
51292;SDS011;37377;45.186;9.778;2022-08-25T13:53:25;9.75;;;2.08;;
51292;SDS011;37377;45.186;9.778;2022-08-25T13:55:57;7.32;;;1.67;;
51292;SDS011;37377;45.186;9.778;2022-08-25T13:58:30;6.78;;;2.17;;
51292;SDS011;37377;45.186;9.778;2022-08-25T14:04:25;6.85;;;2.15;;
51292;SDS011;37377;45.186;9.778;2022-08-25T14:07:30;2.60;;;2.00;;
51292;SDS011;37377;45.186;9.778;2022-08-25T14:09:56;7.25;;;2.10;;
51292;SDS011;37377;45.186;9.778;2022-08-25T14:12:27;5.15;;;2.00;;
51292;SDS011;37377;45.186;9.778;2022-08-25T14:15:07;9.25;;;2.20;;
51292;SDS011;37377;45.186;9.778;2022-08-25T14:17:36;6.43;;;2.38;;
51292;SDS011;37377;45.186;9.778;2022-08-25T14:23:07;3.45;;;2.40;;
51292;SDS011;37377;45.186;9.778;2022-08-25T14:25:44;8.05;;;2.47;;
51292;SDS011;37377;45.186;9.778;2022-08-25T14:28:13;4.32;;;1.98;;
51292;SDS011;37377;45.186;9.778;2022-08-25T14:30:50;5.07;;;1.92;;
51292;SDS011;37377;45.186;9.778;2022-08-25T14:33:22;7.85;;;1.90;;
51292;SDS011;37377;45.186;9.778;2022-08-25T14:35:52;6.05;;;2.00;;
51292;SDS011;37377;45.186;9.778;2022-08-25T14:38:20;5.90;;;2.05;;
51292;SDS011;37377;45.186;9.778;2022-08-25T14:40:48;6.35;;;1.77;;
51292;SDS011;37377;45.186;9.778;2022-08-25T14:43:16;7.78;;;2.40;;
51292;SDS011;37377;45.186;9.778;2022-08-25T14:45:48;8.43;;;2.37;;
51292;SDS011;37377;45.186;9.778;2022-08-25T14:48:17;5.00;;;2.00;;
51292;SDS011;37377;45.186;9.778;2022-08-25T14:50:50;11.20;;;1.90;;
51292;SDS011;37377;45.186;9.778;2022-08-25T14:53:18;7.72;;;1.70;;
51292;SDS011;37377;45.186;9.778;2022-08-25T14:55:45;4.95;;;1.90;;
51292;SDS011;37377;45.186;9.778;2022-08-25T14:58:13;5.53;;;2.00;;
51292;SDS011;37377;45.186;9.778;2022-08-25T15:00:41;2.92;;;1.70;;
51292;SDS011;37377;45.186;9.778;2022-08-25T15:03:11;10.80;;;2.13;;
51292;SDS011;37377;45.186;9.778;2022-08-25T15:05:39;16.73;;;2.17;;
51292;SDS011;37377;45.186;9.778;2022-08-25T15:08:08;6.20;;;1.80;;
51292;SDS011;37377;45.186;9.778;2022-08-25T15:10:59;5.50;;;1.95;;
51292;SDS011;37377;45.186;9.778;2022-08-25T15:13:26;8.63;;;1.83;;
51292;SDS011;37377;45.186;9.778;2022-08-25T15:15:54;7.63;;;1.70;;
51292;SDS011;37377;45.186;9.778;2022-08-25T15:18:23;4.75;;;1.60;;
51292;SDS011;37377;45.186;9.778;2022-08-25T15:20:51;7.25;;;1.67;;
51292;SDS011;37377;45.186;9.778;2022-08-25T15:23:18;11.05;;;1.50;;
51292;SDS011;37377;45.186;9.778;2022-08-25T15:25:46;2.67;;;1.95;;
51292;SDS011;37377;45.186;9.778;2022-08-25T15:28:18;6.32;;;1.67;;
51292;SDS011;37377;45.186;9.778;2022-08-25T15:30:48;3.22;;;1.80;;
51292;SDS011;37377;45.186;9.778;2022-08-25T15:33:16;7.13;;;1.50;;
51292;SDS011;37377;45.186;9.778;2022-08-25T15:35:43;3.88;;;1.60;;
51292;SDS011;37377;45.186;9.778;2022-08-25T15:38:11;4.22;;;1.58;;
51292;SDS011;37377;45.186;9.778;2022-08-25T15:40:38;1.90;;;1.70;;
51292;SDS011;37377;45.186;9.778;2022-08-25T15:43:05;1.83;;;1.70;;
51292;SDS011;37377;45.186;9.778;2022-08-25T15:45:33;8.48;;;1.83;;
51292;SDS011;37377;45.186;9.778;2022-08-25T15:48:02;5.22;;;1.90;;
51292;SDS011;37377;45.186;9.778;2022-08-25T15:50:34;4.75;;;1.92;;
51292;SDS011;37377;45.186;9.778;2022-08-25T15:53:01;8.45;;;1.80;;
51292;SDS011;37377;45.186;9.778;2022-08-25T15:55:36;4.23;;;1.70;;
51292;SDS011;37377;45.186;9.778;2022-08-25T15:58:05;5.72;;;1.50;;
51292;SDS011;37377;45.186;9.778;2022-08-25T16:00:34;3.35;;;1.48;;
51292;SDS011;37377;45.186;9.778;2022-08-25T16:03:03;2.90;;;1.52;;
51292;SDS011;37377;45.186;9.778;2022-08-25T16:05:36;4.35;;;1.75;;
51292;SDS011;37377;45.186;9.778;2022-08-25T16:08:14;3.47;;;1.60;;
51292;SDS011;37377;45.186;9.778;2022-08-25T16:10:45;9.98;;;1.70;;
51292;SDS011;37377;45.186;9.778;2022-08-25T16:13:12;9.60;;;1.83;;
51292;SDS011;37377;45.186;9.778;2022-08-25T16:15:40;5.63;;;1.70;;
51292;SDS011;37377;45.186;9.778;2022-08-25T16:18:18;1.70;;;1.60;;
51292;SDS011;37377;45.186;9.778;2022-08-25T16:20:46;11.20;;;1.70;;
51292;SDS011;37377;45.186;9.778;2022-08-25T16:23:14;4.63;;;1.77;;
51292;SDS011;37377;45.186;9.778;2022-08-25T16:25:43;11.00;;;1.58;;
51292;SDS011;37377;45.186;9.778;2022-08-25T16:28:12;10.30;;;2.28;;
51292;SDS011;37377;45.186;9.778;2022-08-25T16:30:44;9.15;;;1.77;;
51292;SDS011;37377;45.186;9.778;2022-08-25T16:33:18;2.97;;;1.90;;
51292;SDS011;37377;45.186;9.778;2022-08-25T16:35:46;2.70;;;1.60;;
51292;SDS011;37377;45.186;9.778;2022-08-25T16:38:14;3.17;;;1.98;;
51292;SDS011;37377;45.186;9.778;2022-08-25T16:40:42;3.10;;;1.70;;
51292;SDS011;37377;45.186;9.778;2022-08-25T16:43:10;3.72;;;1.83;;
51292;SDS011;37377;45.186;9.778;2022-08-25T16:45:37;7.13;;;2.08;;
51292;SDS011;37377;45.186;9.778;2022-08-25T16:48:05;5.30;;;2.08;;
51292;SDS011;37377;45.186;9.778;2022-08-25T16:50:34;5.00;;;1.80;;
51292;SDS011;37377;45.186;9.778;2022-08-25T16:53:04;14.82;;;1.70;;
51292;SDS011;37377;45.186;9.778;2022-08-25T16:55:58;9.20;;;2.25;;
51292;SDS011;37377;45.186;9.778;2022-08-25T16:58:26;12.43;;;1.90;;
51292;SDS011;37377;45.186;9.778;2022-08-25T17:01:00;5.20;;;1.80;;
51292;SDS011;37377;45.186;9.778;2022-08-25T17:03:37;6.03;;;1.98;;
51292;SDS011;37377;45.186;9.778;2022-08-25T17:06:09;8.73;;;1.85;;
51292;SDS011;37377;45.186;9.778;2022-08-25T17:08:37;4.22;;;2.35;;
51292;SDS011;37377;45.186;9.778;2022-08-25T17:13:36;2.53;;;1.90;;
51292;SDS011;37377;45.186;9.778;2022-08-25T17:16:10;6.50;;;1.95;;
51292;SDS011;37377;45.186;9.778;2022-08-25T17:18:40;13.93;;;2.30;;
51292;SDS011;37377;45.186;9.778;2022-08-25T17:21:09;13.43;;;2.40;;
51292;SDS011;37377;45.186;9.778;2022-08-25T17:23:50;14.18;;;2.40;;
51292;SDS011;37377;45.186;9.778;2022-08-25T17:26:18;3.88;;;1.80;;
51292;SDS011;37377;45.186;9.778;2022-08-25T17:28:53;12.75;;;2.47;;
51292;SDS011;37377;45.186;9.778;2022-08-25T17:31:20;7.07;;;2.28;;
51292;SDS011;37377;45.186;9.778;2022-08-25T17:33:49;8.75;;;2.53;;
51292;SDS011;37377;45.186;9.778;2022-08-25T17:36:18;11.43;;;2.00;;
51292;SDS011;37377;45.186;9.778;2022-08-25T17:38:50;3.05;;;2.03;;
51292;SDS011;37377;45.186;9.778;2022-08-25T17:41:17;7.18;;;1.70;;
51292;SDS011;37377;45.186;9.778;2022-08-25T17:43:44;4.40;;;1.70;;
51292;SDS011;37377;45.186;9.778;2022-08-25T17:46:11;15.40;;;2.45;;
51292;SDS011;37377;45.186;9.778;2022-08-25T17:48:59;4.46;;;2.33;;
51292;SDS011;37377;45.186;9.778;2022-08-25T17:51:26;7.55;;;2.20;;
51292;SDS011;37377;45.186;9.778;2022-08-25T17:54:03;12.68;;;2.92;;
51292;SDS011;37377;45.186;9.778;2022-08-25T17:56:30;18.23;;;2.70;;
51292;SDS011;37377;45.186;9.778;2022-08-25T17:58:58;15.57;;;2.72;;
51292;SDS011;37377;45.186;9.778;2022-08-25T18:01:27;21.70;;;3.00;;